Söndag 2024-05-26 07:44:13 vecka 21, namnsdag Vilhelmina, Vilma, imorgon Beda, Blenda  [Huvudmeny]   minomax.se   minomax.se/metar   minomax.se/flyg   wwwinfo.se   medd.nu  -  meddelanden   kakor METAR-data Visa METAR-temperaturer och data
Land: skriv landsbeteckning, 2 bokstäver, tex. se för Sverige. Sök land Sökord: skriv sökord, eller lämna tomt så visas alla Visar METAR för SE- Sverige Land/ IATA/ICAO Id Flygplats Temp Tid Datum region METAR... ---- ------------------------- ---- ----- ---------- ------ --- ------------... ESCF Linköping/Malmen Air Base 14 06:50 2024-05-26 SE-E --- ESCF 260450Z AUTO 05006KT 9999 NCD 14/13 Q1023= ESCM Uppsala Airport 10 06:50 2024-05-26 SE-C --- ESCM 260450Z AUTO 03008KT 2400 BR OVC001/// 10/10 Q1026= ESDF Ronneby Airport 14 06:50 2024-05-26 SE-K RNB ESDF 260450Z AUTO 05010KT 9999 NCD 14/13 Q1020= ESGG Gothenburg-Landvetter Air 15 06:50 2024-05-26 SE-Q GOT ESGG 260450Z 10006KT CAVOK 15/12 Q1021= ESGJ Jönköping Airport 16 06:50 2024-05-26 SE-F JKG ESGJ 260450Z AUTO 06003KT 010V090 9999 NCD 16/14 Q1022=
ESGP Gothenburg City Airport 15 06:50 2024-05-26 SE-Q GSE ESGP 260450Z AUTO 00000KT 9999 NCD 15/14 Q1021= ESGR Skövde Airport 3 (14:50 2022-03-31) SE-Q KVB ESGR 311250Z AUTO /////KT 9999 -RA OVC055/// 03/M08 Q1011 REUP= ESGT Trollhättan-Vänersborg Ai 15 06:50 2024-05-26 SE-Q THN ESGT 260450Z AUTO 01003KT 9999 NCD 15/14 Q1022= ESIA Karlsborg Air Base 14 06:50 2024-05-26 SE-Q --- ESIA 260450Z AUTO 06006KT 9999 NCD 14/13 Q1023= ESIB Såtenäs Air Base 17 06:50 2024-05-26 SE-Q --- ESIB 260450Z AUTO 10004KT 9999 NCD 17/13 Q1022=
ESKM Mora Airport 12 06:50 2024-05-26 SE-W MXX ESKM 260450Z AUTO 03005KT 8000 OVC004/// 12/12 Q1027= ESKN Stockholm / Nyköping/Stoc 15 06:50 2024-05-26 SE-D NYO ESKN 260450Z 04006KT CAVOK 15/13 Q1024= ESKS Sälen - Trysil Airport 14 06:50 2024-05-26 SE-W SCR ESKS 260450Z AUTO 08004KT 9999 NCD 14/11 Q1025= ESMK Kristianstad Airport 13 06:50 2024-05-26 SE-M KID ESMK 260450Z AUTO 00000KT 9999 NCD 13/13 Q1020= ESMQ Kalmar Airport 15 06:50 2024-05-26 SE-H KLR ESMQ 260450Z AUTO 05005KT 9999 NCD 15/14 Q1022=
ESMS Malmö Sturup Airport 15 06:50 2024-05-26 SE-M MMX ESMS 260450Z 05005KT CAVOK 15/13 Q1019= ESMT Halmstad Airport 16 06:50 2024-05-26 SE-N HAD ESMT 260450Z AUTO 06006KT 9999 NCD 16/13 Q1020= ESMV Hagshult Air Base 15 06:50 2024-05-26 SE-F --- ESMV 260450Z AUTO 04004KT 9999 NCD 15/12 Q1022= ESMX Växjö Kronoberg Airport 15 06:50 2024-05-26 SE-G VXO ESMX 260450Z AUTO 07004KT 040V100 9999 NCD 15/13 Q1022= ESND Sveg Airport 10 06:50 2024-05-26 SE-Z EVG ESND 260450Z AUTO 06004KT 1000 R09/1700D R27/1400N BR BKN001/// OVC003/// 10/09 Q1028=
ESNG Gällivare Airport 12 06:50 2024-05-26 SE-BD GEV ESNG 260450Z AUTO 00000KT 9999 NCD 12/02 Q1027= ESNK Kramfors / Sollefteå/Kram 9 06:50 2024-05-26 SE-Y KRF ESNK 260450Z AUTO 36003KT 340V040 9999 NCD 09/04 Q1029= ESNL Lycksele Airport 12 06:50 2024-05-26 SE-AC LYC ESNL 260450Z AUTO VRB02KT 9999 NCD 12/02 Q1030= ESNN Sundsvall/ Härnösand/Sund 11 06:50 2024-05-26 SE-Y SDL ESNN 260450Z AUTO 33003KT 300V360 9999 NCD 11/01 Q1028= ESNO Örnsköldsvik Airport 12 06:50 2024-05-26 SE-Y OER ESNO 260450Z AUTO 04005KT 340V090 9999 NCD 12/M01 Q1029=
ESNQ Kiruna Airport 10 06:50 2024-05-26 SE-BD KRN ESNQ 260450Z AUTO 22006KT 9999 NCD 10/00 Q1025= ESNS Skellefteå Airport 12 06:50 2024-05-26 SE-AC SFT ESNS 260450Z AUTO 00000KT 9999 NCD 12/M00 Q1030= ESNU Umeå Airport 11 06:50 2024-05-26 SE-AC UME ESNU 260450Z 04004KT 350V070 CAVOK 11/02 Q1030= ESNV Vilhelmina Airport 12 06:50 2024-05-26 SE-AC VHM ESNV 260450Z AUTO VRB02KT 9999 NCD 12/03 Q1029= ESNX Arvidsjaur Airport 13 06:50 2024-05-26 SE-BD AJR ESNX 260450Z AUTO 15004KT 9999 NCD 13/M00 Q1029=
ESNZ Åre Östersund Airport 11 06:50 2024-05-26 SE-Z OSD ESNZ 260450Z AUTO 12009KT 9999 SCT015/// 11/03 Q1027= ESOE Örebro Airport 13 06:50 2024-05-26 SE-T ORB ESOE 260450Z 05008KT 8000 OVC004 13/12 Q1024= ESOH Hagfors Airport 17 06:50 2024-05-26 SE-S HFS ESOH 260450Z AUTO 05005KT 010V080 9999 NCD 17/14 Q1024= ESOK Karlstad Airport 17 06:50 2024-05-26 SE-S KSD ESOK 260450Z AUTO 08008KT 9999 NCD 17/14 Q1023= ESOW Stockholm Västerås Airpor 12 06:50 2024-05-26 SE-U VST ESOW 260450Z AUTO 03010KT 9000 OVC003/// 12/10 Q1026=
ESPA Luleå Airport 12 06:50 2024-05-26 SE-BD LLA ESPA 260450Z AUTO 17003KT 130V210 9999 NCD 12/02 Q1030= ESPE Vidsel Air Base 13 06:50 2024-05-26 SE-BD --- ESPE 260450Z AUTO VRB02KT 9999 NCD 13/02 Q1029= ESSA Stockholm-Arlanda Airport 11 06:50 2024-05-26 SE-AB ARN ESSA 260450Z 03007KT 2000 BCFG OVC002 11/11 Q1025 BECMG 5000= ESSB Stockholm-Bromma Airport 13 06:50 2024-05-26 SE-AB BMA ESSB 260450Z AUTO 04004KT 360V070 9999 OVC003/// 13/12 Q1025= ESSD Borlange Airport 10 06:50 2024-05-26 SE-W BLE ESSD 260450Z AUTO 07003KT 040V100 6000 OVC002/// 10/10 Q1026=
ESSL Linköping City Airport 14 06:50 2024-05-26 SE-E LPI ESSL 260450Z AUTO VRB02KT 9999 NCD 14/12 Q1024= ESSP Norrköping Airport 14 06:50 2024-05-26 SE-E NRK ESSP 260450Z 00000KT CAVOK 14/13 Q1024= ESST Torsby Airport 17 06:50 2024-05-26 SE-S TYF ESST 260450Z AUTO 01002KT 9999 NCD 17/14 Q1024= ESSV Visby Airport 17 06:50 2024-05-26 SE-I VBY ESSV 260450Z AUTO 11007KT 1000 R03/P2000N R21/P2000N BCFG NCD 17/13 Q1023= ESTA Ängelholm-Helsingborg Air 16 06:50 2024-05-26 SE-M AGH ESTA 260450Z AUTO 08005KT 9999 NCD 16/13 Q1020=
ESTL Ljungbyhed Airport 14 06:50 2024-05-26 SE-M --- ESTL 260450Z AUTO 00000KT 9999 NCD 14/14 Q1020= ESUP Pajala Airport 13 06:50 2024-05-26 SE-BD PJA ESUP 260450Z AUTO 22010KT 9999 NCD 13/M00 Q1027= ESUT Hemavan Airport 9 06:50 2024-05-26 SE-AC HMV ESUT 260450Z AUTO VRB02KT 9999 NCD 09/03 Q1027= (48 rader visades) Du kan lägga till id-beteckningen först på raden i valfri Lista 1 - 5 [top] ↕°C [1] [2] [3] [4] [5] ??? LISTOR 00-nr NOT MEDD MT METAR SYNOP SE SE-AB SE-C SE-D SE-E SE-F SE-G SE-H SE-I SE-K SE-M SE-N SE-O SE-P SE-T SE-U SE-W SE-X SE-Y SE-Z SE-AC SE-BD rådata flyg flyg_osd